Airfield :
LOGIN :

Register | Disclaimer

   EN    FR    IT 

 










Legend :    VFR   Marginal VFR   IFR   Intensive IFR   Very Intensive IFR
Visi :
Ceiling :
>= 8 km
>= 3000ft
5 to 8 km
1000 to 3000 ft
1500m to 5 km
500 to 1000 ft
800 to 1500m
200 to 500 ft
< 800m
< 200 ft
Symbols :   Thunderstorms  Fog  Heavy snow  Heavy precipitations  Wind > 20 kt
SIGMETs :     Misc.  Thunderstorms  Icing  Turbulence  Mountain Waves  Volcanic Ashes







- Airport Elevation : 935 ft


EBFS - Florennes

CURRENT METAR :
  • 211855Z 33006KT 9999 SCT260 14/06 Q1018 BLU BLU

EXPIRED METARs :
  • 211825Z 32008KT 9999 FEW040 BKN260 14/06 Q1018 BLU BLU
  • 211755Z 31008KT 9999 FEW040 BKN260 15/05 Q1018 BLU BLU
  • 211725Z 31010KT 9999 FEW040 BKN260 15/04 Q1017 BLU BLU
  • 211655Z 31014KT 9999 FEW040 BKN260 16/05 Q1017 BLU BLU
  • 211625Z 31012KT 9999 FEW040 BKN260 16/05 Q1017 BLU BLU
  • 211555Z 32012KT 9999 FEW040 BKN260 16/06 Q1017 BLU BLU

TAF TAF EBFS
Valid from the 21 at 19:00 until the 22 at 07:00 UTC


211541Z 2119/2207 30015KT 9999 FEW040 SCT280
BECMG 2120/2122 30010KT 5000 BR
TEMPO 2121/2200 4000 BR
BECMG 2122/2200 3000 BR
TEMPO 2200/2207 500 FG
No reported NOTAMs for that airfield.



MET'MAP, your aeronautical weather chart ! - Copyright ORBIFLY December 2007 - Disclaimer

ORBIFLY MET'MAP TEAM :

Programming & Development : Alexandra Zaïnal
Concept & Development : Baudouin d'Aumeries
Co-Development & Prog : Marc-Olivier Méhu
Technical & hardware support : Manuel Goepfert

Contact : metmap@orbifly.com




SOURCES & CREDITS :

   NOAA